sensor_id;sensor_type;location;lat;lon;timestamp;temperature;humidity
32502;DHT22;18952;52.516;13.460;2023-06-22T00:01:33;21.30;99.90
32502;DHT22;18952;52.516;13.460;2023-06-22T00:04:00;21.40;99.90
32502;DHT22;18952;52.516;13.460;2023-06-22T00:06:27;21.40;99.90
32502;DHT22;18952;52.516;13.460;2023-06-22T00:08:54;21.40;99.90
32502;DHT22;18952;52.516;13.460;2023-06-22T00:11:21;21.40;99.90
32502;DHT22;18952;52.516;13.460;2023-06-22T00:13:47;21.30;99.90
32502;DHT22;18952;52.516;13.460;2023-06-22T00:16:14;21.30;99.90
32502;DHT22;18952;52.516;13.460;2023-06-22T00:18:41;21.30;99.90
32502;DHT22;18952;52.516;13.460;2023-06-22T00:21:08;21.30;99.90
32502;DHT22;18952;52.516;13.460;2023-06-22T00:23:35;21.20;99.90
32502;DHT22;18952;52.516;13.460;2023-06-22T00:26:02;21.20;99.90
32502;DHT22;18952;52.516;13.460;2023-06-22T00:28:29;21.20;99.90
32502;DHT22;18952;52.516;13.460;2023-06-22T00:30:56;21.10;99.90
32502;DHT22;18952;52.516;13.460;2023-06-22T00:33:23;21.00;99.90
32502;DHT22;18952;52.516;13.460;2023-06-22T00:35:49;21.00;99.90
32502;DHT22;18952;52.516;13.460;2023-06-22T00:38:16;21.00;99.90
32502;DHT22;18952;52.516;13.460;2023-06-22T00:40:43;21.00;99.90
32502;DHT22;18952;52.516;13.460;2023-06-22T00:43:10;21.00;99.90
32502;DHT22;18952;52.516;13.460;2023-06-22T00:45:37;20.90;99.90
32502;DHT22;18952;52.516;13.460;2023-06-22T00:48:05;20.90;99.90
32502;DHT22;18952;52.516;13.460;2023-06-22T00:50:33;20.80;99.90
32502;DHT22;18952;52.516;13.460;2023-06-22T00:53:06;20.90;99.90
32502;DHT22;18952;52.516;13.460;2023-06-22T00:55:35;20.90;99.90
32502;DHT22;18952;52.516;13.460;2023-06-22T00:58:03;20.90;99.90
32502;DHT22;18952;52.516;13.460;2023-06-22T01:00:30;20.90;99.90
32502;DHT22;18952;52.516;13.460;2023-06-22T01:02:58;20.90;99.90
32502;DHT22;18952;52.516;13.460;2023-06-22T01:05:25;20.90;99.90
32502;DHT22;18952;52.516;13.460;2023-06-22T01:08:04;20.90;99.90
32502;DHT22;18952;52.516;13.460;2023-06-22T01:10:51;20.90;99.90
32502;DHT22;18952;52.516;13.460;2023-06-22T01:13:25;20.90;99.90
32502;DHT22;18952;52.516;13.460;2023-06-22T01:16:05;20.90;99.90
32502;DHT22;18952;52.516;13.460;2023-06-22T01:18:35;20.90;99.90
32502;DHT22;18952;52.516;13.460;2023-06-22T01:21:05;20.80;99.90
32502;DHT22;18952;52.516;13.460;2023-06-22T01:23:42;20.90;99.90
32502;DHT22;18952;52.516;13.460;2023-06-22T01:26:18;20.90;99.90
32502;DHT22;18952;52.516;13.460;2023-06-22T01:28:50;20.70;99.90
32502;DHT22;18952;52.516;13.460;2023-06-22T01:31:24;20.70;99.90
32502;DHT22;18952;52.516;13.460;2023-06-22T01:33:55;20.60;99.90
32502;DHT22;18952;52.516;13.460;2023-06-22T01:36:24;20.60;99.90
32502;DHT22;18952;52.516;13.460;2023-06-22T01:38:52;20.60;99.90
32502;DHT22;18952;52.516;13.460;2023-06-22T01:41:20;20.60;99.90
32502;DHT22;18952;52.516;13.460;2023-06-22T01:43:48;20.60;99.90
32502;DHT22;18952;52.516;13.460;2023-06-22T01:46:15;20.60;99.90
32502;DHT22;18952;52.516;13.460;2023-06-22T01:48:42;20.60;99.90
32502;DHT22;18952;52.516;13.460;2023-06-22T01:51:09;20.60;99.90
32502;DHT22;18952;52.516;13.460;2023-06-22T01:53:36;20.60;99.90
32502;DHT22;18952;52.516;13.460;2023-06-22T01:56:03;20.50;99.90
32502;DHT22;18952;52.516;13.460;2023-06-22T01:58:31;20.50;99.90
32502;DHT22;18952;52.516;13.460;2023-06-22T02:01:09;20.50;99.90
32502;DHT22;18952;52.516;13.460;2023-06-22T02:04:00;20.50;99.90
32502;DHT22;18952;52.516;13.460;2023-06-22T02:06:33;20.50;99.90
32502;DHT22;18952;52.516;13.460;2023-06-22T02:09:02;20.40;99.90
32502;DHT22;18952;52.516;13.460;2023-06-22T02:11:32;20.40;99.90
32502;DHT22;18952;52.516;13.460;2023-06-22T02:14:00;20.50;99.90
32502;DHT22;18952;52.516;13.460;2023-06-22T02:16:27;20.50;99.90
32502;DHT22;18952;52.516;13.460;2023-06-22T02:18:54;20.40;99.90
32502;DHT22;18952;52.516;13.460;2023-06-22T02:21:21;20.40;99.90
32502;DHT22;18952;52.516;13.460;2023-06-22T02:23:48;20.30;99.90
32502;DHT22;18952;52.516;13.460;2023-06-22T02:26:17;20.40;99.90
32502;DHT22;18952;52.516;13.460;2023-06-22T02:28:44;20.30;99.90
32502;DHT22;18952;52.516;13.460;2023-06-22T02:31:11;20.40;99.90
32502;DHT22;18952;52.516;13.460;2023-06-22T02:33:38;20.40;99.90
32502;DHT22;18952;52.516;13.460;2023-06-22T02:36:05;20.50;99.90
32502;DHT22;18952;52.516;13.460;2023-06-22T02:38:32;20.50;99.90
32502;DHT22;18952;52.516;13.460;2023-06-22T02:40:58;20.50;99.90
32502;DHT22;18952;52.516;13.460;2023-06-22T02:43:26;20.50;99.90
32502;DHT22;18952;52.516;13.460;2023-06-22T02:45:53;20.50;99.90
32502;DHT22;18952;52.516;13.460;2023-06-22T02:48:20;20.60;99.90
32502;DHT22;18952;52.516;13.460;2023-06-22T02:50:47;20.60;99.90
32502;DHT22;18952;52.516;13.460;2023-06-22T02:53:14;20.60;99.90
32502;DHT22;18952;52.516;13.460;2023-06-22T02:55:40;20.60;99.90
32502;DHT22;18952;52.516;13.460;2023-06-22T02:58:08;20.70;99.90
32502;DHT22;18952;52.516;13.460;2023-06-22T03:00:34;20.60;99.90
32502;DHT22;18952;52.516;13.460;2023-06-22T03:03:01;20.60;99.90
32502;DHT22;18952;52.516;13.460;2023-06-22T03:05:28;20.60;99.90
32502;DHT22;18952;52.516;13.460;2023-06-22T03:07:55;20.70;99.90
32502;DHT22;18952;52.516;13.460;2023-06-22T03:10:22;20.70;99.90
32502;DHT22;18952;52.516;13.460;2023-06-22T03:12:49;20.70;99.90
32502;DHT22;18952;52.516;13.460;2023-06-22T03:15:15;20.70;99.90
32502;DHT22;18952;52.516;13.460;2023-06-22T03:17:42;20.60;99.90
32502;DHT22;18952;52.516;13.460;2023-06-22T03:20:10;20.70;99.90
32502;DHT22;18952;52.516;13.460;2023-06-22T03:22:37;20.70;99.90
32502;DHT22;18952;52.516;13.460;2023-06-22T03:25:05;20.70;99.90
32502;DHT22;18952;52.516;13.460;2023-06-22T03:27:32;20.70;99.90
32502;DHT22;18952;52.516;13.460;2023-06-22T03:29:58;20.70;99.90
32502;DHT22;18952;52.516;13.460;2023-06-22T03:32:25;20.70;99.90
32502;DHT22;18952;52.516;13.460;2023-06-22T03:34:52;20.70;99.90
32502;DHT22;18952;52.516;13.460;2023-06-22T03:37:19;20.70;99.90
32502;DHT22;18952;52.516;13.460;2023-06-22T03:39:46;20.70;99.90
32502;DHT22;18952;52.516;13.460;2023-06-22T03:42:12;20.70;99.90
32502;DHT22;18952;52.516;13.460;2023-06-22T03:44:39;20.70;99.90
32502;DHT22;18952;52.516;13.460;2023-06-22T03:47:06;20.70;99.90
32502;DHT22;18952;52.516;13.460;2023-06-22T03:49:33;20.70;99.90
32502;DHT22;18952;52.516;13.460;2023-06-22T03:52:01;20.70;99.90
32502;DHT22;18952;52.516;13.460;2023-06-22T03:54:29;20.70;99.90
32502;DHT22;18952;52.516;13.460;2023-06-22T03:56:57;20.60;99.90
32502;DHT22;18952;52.516;13.460;2023-06-22T03:59:25;20.60;99.90
32502;DHT22;18952;52.516;13.460;2023-06-22T04:01:52;20.60;99.90
32502;DHT22;18952;52.516;13.460;2023-06-22T04:04:18;20.60;99.90
32502;DHT22;18952;52.516;13.460;2023-06-22T04:06:45;20.60;99.90
32502;DHT22;18952;52.516;13.460;2023-06-22T04:09:12;20.60;99.90
32502;DHT22;18952;52.516;13.460;2023-06-22T04:11:39;20.60;99.90
32502;DHT22;18952;52.516;13.460;2023-06-22T04:14:06;20.60;99.90
32502;DHT22;18952;52.516;13.460;2023-06-22T04:16:33;20.70;99.90
32502;DHT22;18952;52.516;13.460;2023-06-22T04:19:00;20.70;99.90
32502;DHT22;18952;52.516;13.460;2023-06-22T04:21:26;20.70;99.90
32502;DHT22;18952;52.516;13.460;2023-06-22T04:23:53;20.70;99.90
32502;DHT22;18952;52.516;13.460;2023-06-22T04:26:20;20.70;99.90
32502;DHT22;18952;52.516;13.460;2023-06-22T04:28:47;20.70;99.90
32502;DHT22;18952;52.516;13.460;2023-06-22T04:31:14;20.80;99.90
32502;DHT22;18952;52.516;13.460;2023-06-22T04:33:41;20.80;99.90
32502;DHT22;18952;52.516;13.460;2023-06-22T04:36:08;20.90;99.90
32502;DHT22;18952;52.516;13.460;2023-06-22T04:38:35;20.90;99.90
32502;DHT22;18952;52.516;13.460;2023-06-22T04:41:01;20.90;99.90
32502;DHT22;18952;52.516;13.460;2023-06-22T04:43:28;20.80;99.90
32502;DHT22;18952;52.516;13.460;2023-06-22T04:45:55;20.90;99.90
32502;DHT22;18952;52.516;13.460;2023-06-22T04:48:22;20.90;99.90
32502;DHT22;18952;52.516;13.460;2023-06-22T04:50:49;20.90;99.90
32502;DHT22;18952;52.516;13.460;2023-06-22T04:53:15;20.90;99.90
32502;DHT22;18952;52.516;13.460;2023-06-22T04:55:42;20.90;99.90
32502;DHT22;18952;52.516;13.460;2023-06-22T04:58:09;21.00;99.90
32502;DHT22;18952;52.516;13.460;2023-06-22T05:00:36;21.00;99.90
32502;DHT22;18952;52.516;13.460;2023-06-22T05:03:04;21.00;99.90
32502;DHT22;18952;52.516;13.460;2023-06-22T05:05:45;21.10;99.90
32502;DHT22;18952;52.516;13.460;2023-06-22T05:08:13;21.20;99.90
32502;DHT22;18952;52.516;13.460;2023-06-22T05:10:40;21.20;99.90
32502;DHT22;18952;52.516;13.460;2023-06-22T05:13:25;21.30;99.90
32502;DHT22;18952;52.516;13.460;2023-06-22T05:15:51;21.40;99.90
32502;DHT22;18952;52.516;13.460;2023-06-22T05:18:18;21.40;99.90
32502;DHT22;18952;52.516;13.460;2023-06-22T05:20:45;21.60;99.90
32502;DHT22;18952;52.516;13.460;2023-06-22T05:23:12;21.70;99.90
32502;DHT22;18952;52.516;13.460;2023-06-22T05:25:39;21.80;99.90
32502;DHT22;18952;52.516;13.460;2023-06-22T05:28:05;21.90;99.90
32502;DHT22;18952;52.516;13.460;2023-06-22T05:30:32;22.00;99.90
32502;DHT22;18952;52.516;13.460;2023-06-22T05:32:59;22.00;99.90
32502;DHT22;18952;52.516;13.460;2023-06-22T05:35:26;22.20;99.90
32502;DHT22;18952;52.516;13.460;2023-06-22T05:37:53;22.30;99.90
32502;DHT22;18952;52.516;13.460;2023-06-22T05:40:20;22.40;99.90
32502;DHT22;18952;52.516;13.460;2023-06-22T05:42:47;22.40;99.90
32502;DHT22;18952;52.516;13.460;2023-06-22T05:45:14;22.40;99.90
32502;DHT22;18952;52.516;13.460;2023-06-22T05:47:41;22.50;99.90
32502;DHT22;18952;52.516;13.460;2023-06-22T05:50:08;22.50;99.90
32502;DHT22;18952;52.516;13.460;2023-06-22T05:52:38;22.50;99.90
32502;DHT22;18952;52.516;13.460;2023-06-22T05:55:06;22.50;99.90
32502;DHT22;18952;52.516;13.460;2023-06-22T05:57:33;22.60;99.90
32502;DHT22;18952;52.516;13.460;2023-06-22T05:59:59;22.60;99.90
32502;DHT22;18952;52.516;13.460;2023-06-22T06:02:26;22.70;99.90
32502;DHT22;18952;52.516;13.460;2023-06-22T06:04:53;22.70;99.90
32502;DHT22;18952;52.516;13.460;2023-06-22T06:07:20;22.70;99.90
32502;DHT22;18952;52.516;13.460;2023-06-22T06:09:47;22.70;99.90
32502;DHT22;18952;52.516;13.460;2023-06-22T06:12:14;22.70;99.90
32502;DHT22;18952;52.516;13.460;2023-06-22T06:14:41;22.70;99.90
32502;DHT22;18952;52.516;13.460;2023-06-22T06:17:08;22.70;99.90
32502;DHT22;18952;52.516;13.460;2023-06-22T06:19:35;22.70;99.90
32502;DHT22;18952;52.516;13.460;2023-06-22T06:22:01;22.70;99.90
32502;DHT22;18952;52.516;13.460;2023-06-22T06:24:28;22.70;99.90
32502;DHT22;18952;52.516;13.460;2023-06-22T06:26:55;22.70;99.90
32502;DHT22;18952;52.516;13.460;2023-06-22T06:29:22;22.70;99.90
32502;DHT22;18952;52.516;13.460;2023-06-22T06:31:49;22.60;99.90
32502;DHT22;18952;52.516;13.460;2023-06-22T06:34:18;22.60;99.90
32502;DHT22;18952;52.516;13.460;2023-06-22T06:36:45;22.60;99.90
32502;DHT22;18952;52.516;13.460;2023-06-22T06:39:11;22.60;99.90
32502;DHT22;18952;52.516;13.460;2023-06-22T06:41:38;22.60;99.90
32502;DHT22;18952;52.516;13.460;2023-06-22T06:44:05;22.60;99.90
32502;DHT22;18952;52.516;13.460;2023-06-22T06:46:32;22.60;99.90
32502;DHT22;18952;52.516;13.460;2023-06-22T06:48:59;22.60;99.90
32502;DHT22;18952;52.516;13.460;2023-06-22T06:51:26;22.70;99.90
32502;DHT22;18952;52.516;13.460;2023-06-22T06:53:53;22.80;99.90
32502;DHT22;18952;52.516;13.460;2023-06-22T06:56:20;22.80;99.90
32502;DHT22;18952;52.516;13.460;2023-06-22T06:58:47;22.80;99.90
32502;DHT22;18952;52.516;13.460;2023-06-22T07:01:13;22.80;99.90
32502;DHT22;18952;52.516;13.460;2023-06-22T07:03:40;22.80;99.90
32502;DHT22;18952;52.516;13.460;2023-06-22T07:06:08;22.90;99.90
32502;DHT22;18952;52.516;13.460;2023-06-22T07:08:35;22.90;99.90
32502;DHT22;18952;52.516;13.460;2023-06-22T07:11:02;22.90;99.90
32502;DHT22;18952;52.516;13.460;2023-06-22T07:13:29;22.90;99.90
32502;DHT22;18952;52.516;13.460;2023-06-22T07:15:58;23.00;99.90
32502;DHT22;18952;52.516;13.460;2023-06-22T07:18:25;23.10;99.90
32502;DHT22;18952;52.516;13.460;2023-06-22T07:20:52;23.20;99.90
32502;DHT22;18952;52.516;13.460;2023-06-22T07:23:19;23.40;99.90
32502;DHT22;18952;52.516;13.460;2023-06-22T07:25:48;23.50;99.90
32502;DHT22;18952;52.516;13.460;2023-06-22T07:28:15;23.60;99.90
32502;DHT22;18952;52.516;13.460;2023-06-22T07:30:42;23.70;99.90
32502;DHT22;18952;52.516;13.460;2023-06-22T07:33:09;23.80;99.90
32502;DHT22;18952;52.516;13.460;2023-06-22T07:35:36;23.90;99.90
32502;DHT22;18952;52.516;13.460;2023-06-22T07:38:03;24.00;99.90
32502;DHT22;18952;52.516;13.460;2023-06-22T07:40:32;24.10;99.90
32502;DHT22;18952;52.516;13.460;2023-06-22T07:42:59;24.20;99.90
32502;DHT22;18952;52.516;13.460;2023-06-22T07:45:26;24.30;99.90
32502;DHT22;18952;52.516;13.460;2023-06-22T07:47:53;24.30;99.90
32502;DHT22;18952;52.516;13.460;2023-06-22T07:50:20;24.40;99.90
32502;DHT22;18952;52.516;13.460;2023-06-22T07:52:47;24.50;99.90
32502;DHT22;18952;52.516;13.460;2023-06-22T07:55:14;24.60;99.90
32502;DHT22;18952;52.516;13.460;2023-06-22T07:57:40;24.70;99.90
32502;DHT22;18952;52.516;13.460;2023-06-22T08:00:08;24.80;99.90
32502;DHT22;18952;52.516;13.460;2023-06-22T08:02:34;24.90;99.90
32502;DHT22;18952;52.516;13.460;2023-06-22T08:05:01;25.00;99.90
32502;DHT22;18952;52.516;13.460;2023-06-22T08:07:45;25.00;99.90
32502;DHT22;18952;52.516;13.460;2023-06-22T08:10:14;25.10;99.90
32502;DHT22;18952;52.516;13.460;2023-06-22T08:12:42;25.20;99.10
32502;DHT22;18952;52.516;13.460;2023-06-22T08:15:09;25.30;98.50
32502;DHT22;18952;52.516;13.460;2023-06-22T08:17:38;25.30;98.00
32502;DHT22;18952;52.516;13.460;2023-06-22T08:20:07;25.40;97.70
32502;DHT22;18952;52.516;13.460;2023-06-22T08:22:34;25.50;97.60
32502;DHT22;18952;52.516;13.460;2023-06-22T08:25:01;25.60;97.40
32502;DHT22;18952;52.516;13.460;2023-06-22T08:27:28;25.80;97.00
32502;DHT22;18952;52.516;13.460;2023-06-22T08:29:54;25.90;96.70
32502;DHT22;18952;52.516;13.460;2023-06-22T08:32:21;25.90;96.20
32502;DHT22;18952;52.516;13.460;2023-06-22T08:34:48;26.00;95.80
32502;DHT22;18952;52.516;13.460;2023-06-22T08:37:15;26.10;95.20
32502;DHT22;18952;52.516;13.460;2023-06-22T08:39:42;26.10;95.20
32502;DHT22;18952;52.516;13.460;2023-06-22T08:42:09;26.20;95.40
32502;DHT22;18952;52.516;13.460;2023-06-22T08:44:35;26.20;95.30
32502;DHT22;18952;52.516;13.460;2023-06-22T08:47:02;26.30;95.20
32502;DHT22;18952;52.516;13.460;2023-06-22T08:49:29;26.50;94.50
32502;DHT22;18952;52.516;13.460;2023-06-22T08:51:56;26.50;93.70
32502;DHT22;18952;52.516;13.460;2023-06-22T08:54:23;26.60;93.60
32502;DHT22;18952;52.516;13.460;2023-06-22T08:56:50;26.70;93.40
32502;DHT22;18952;52.516;13.460;2023-06-22T08:59:17;26.80;92.90
32502;DHT22;18952;52.516;13.460;2023-06-22T09:01:43;26.90;92.90
32502;DHT22;18952;52.516;13.460;2023-06-22T09:04:10;27.00;92.70
32502;DHT22;18952;52.516;13.460;2023-06-22T09:06:38;27.00;92.70
32502;DHT22;18952;52.516;13.460;2023-06-22T09:09:05;27.00;92.70
32502;DHT22;18952;52.516;13.460;2023-06-22T09:11:31;27.00;92.80
32502;DHT22;18952;52.516;13.460;2023-06-22T09:13:58;27.20;92.80
32502;DHT22;18952;52.516;13.460;2023-06-22T09:16:25;27.20;92.40
32502;DHT22;18952;52.516;13.460;2023-06-22T09:18:52;27.30;91.80
32502;DHT22;18952;52.516;13.460;2023-06-22T09:21:19;27.30;90.60
32502;DHT22;18952;52.516;13.460;2023-06-22T09:23:46;27.40;89.70
32502;DHT22;18952;52.516;13.460;2023-06-22T09:26:12;27.50;89.00
32502;DHT22;18952;52.516;13.460;2023-06-22T09:28:39;27.50;88.80
32502;DHT22;18952;52.516;13.460;2023-06-22T09:31:06;27.50;88.10
32502;DHT22;18952;52.516;13.460;2023-06-22T09:33:33;27.60;87.50
32502;DHT22;18952;52.516;13.460;2023-06-22T09:36:00;27.60;87.70
32502;DHT22;18952;52.516;13.460;2023-06-22T09:38:26;27.70;87.20
32502;DHT22;18952;52.516;13.460;2023-06-22T09:40:57;27.80;86.20
32502;DHT22;18952;52.516;13.460;2023-06-22T09:43:24;27.70;86.20
32502;DHT22;18952;52.516;13.460;2023-06-22T09:45:51;27.70;84.50
32502;DHT22;18952;52.516;13.460;2023-06-22T09:48:18;27.70;84.40
32502;DHT22;18952;52.516;13.460;2023-06-22T09:50:45;27.70;84.20
32502;DHT22;18952;52.516;13.460;2023-06-22T09:53:11;27.60;85.10
32502;DHT22;18952;52.516;13.460;2023-06-22T09:55:38;27.60;85.40
32502;DHT22;18952;52.516;13.460;2023-06-22T09:58:05;27.60;85.40
32502;DHT22;18952;52.516;13.460;2023-06-22T10:00:32;27.50;85.00
32502;DHT22;18952;52.516;13.460;2023-06-22T10:02:59;27.50;83.70
32502;DHT22;18952;52.516;13.460;2023-06-22T10:05:27;27.50;83.60
32502;DHT22;18952;52.516;13.460;2023-06-22T10:07:54;27.50;83.70
32502;DHT22;18952;52.516;13.460;2023-06-22T10:10:21;27.60;83.80
32502;DHT22;18952;52.516;13.460;2023-06-22T10:12:57;27.60;83.90
32502;DHT22;18952;52.516;13.460;2023-06-22T10:15:29;27.70;84.20
32502;DHT22;18952;52.516;13.460;2023-06-22T10:17:56;27.70;83.80
32502;DHT22;18952;52.516;13.460;2023-06-22T10:20:23;27.60;84.40
32502;DHT22;18952;52.516;13.460;2023-06-22T10:22:50;27.60;84.50
32502;DHT22;18952;52.516;13.460;2023-06-22T10:25:17;27.70;84.60
32502;DHT22;18952;52.516;13.460;2023-06-22T10:27:44;27.80;84.50
32502;DHT22;18952;52.516;13.460;2023-06-22T10:30:13;27.70;84.30
32502;DHT22;18952;52.516;13.460;2023-06-22T10:32:41;27.70;84.60
32502;DHT22;18952;52.516;13.460;2023-06-22T10:35:09;27.80;85.00
32502;DHT22;18952;52.516;13.460;2023-06-22T10:37:36;27.80;84.10
32502;DHT22;18952;52.516;13.460;2023-06-22T10:40:03;27.70;83.70
32502;DHT22;18952;52.516;13.460;2023-06-22T10:42:30;27.80;83.90
32502;DHT22;18952;52.516;13.460;2023-06-22T10:44:57;27.70;83.40
32502;DHT22;18952;52.516;13.460;2023-06-22T10:47:23;27.60;83.30
32502;DHT22;18952;52.516;13.460;2023-06-22T10:49:50;27.60;83.30
32502;DHT22;18952;52.516;13.460;2023-06-22T10:52:17;27.70;83.20
32502;DHT22;18952;52.516;13.460;2023-06-22T10:54:44;27.70;83.00
32502;DHT22;18952;52.516;13.460;2023-06-22T10:57:11;27.80;83.10
32502;DHT22;18952;52.516;13.460;2023-06-22T10:59:38;27.80;82.40
32502;DHT22;18952;52.516;13.460;2023-06-22T11:02:05;27.80;82.10
32502;DHT22;18952;52.516;13.460;2023-06-22T11:04:32;27.90;82.70
32502;DHT22;18952;52.516;13.460;2023-06-22T11:06:59;27.90;81.70
32502;DHT22;18952;52.516;13.460;2023-06-22T11:09:25;28.00;81.10
32502;DHT22;18952;52.516;13.460;2023-06-22T11:11:55;28.10;81.00
32502;DHT22;18952;52.516;13.460;2023-06-22T11:14:23;28.10;80.50
32502;DHT22;18952;52.516;13.460;2023-06-22T11:16:50;28.20;80.50
32502;DHT22;18952;52.516;13.460;2023-06-22T11:19:17;28.30;80.80
32502;DHT22;18952;52.516;13.460;2023-06-22T11:21:44;28.50;79.60
32502;DHT22;18952;52.516;13.460;2023-06-22T11:24:11;28.50;79.20
32502;DHT22;18952;52.516;13.460;2023-06-22T11:26:38;28.70;78.40
32502;DHT22;18952;52.516;13.460;2023-06-22T11:29:05;28.80;78.10
32502;DHT22;18952;52.516;13.460;2023-06-22T11:31:32;28.90;77.50
32502;DHT22;18952;52.516;13.460;2023-06-22T11:33:59;29.00;77.10
32502;DHT22;18952;52.516;13.460;2023-06-22T11:36:26;29.10;76.70
32502;DHT22;18952;52.516;13.460;2023-06-22T11:38:53;29.30;75.90
32502;DHT22;18952;52.516;13.460;2023-06-22T11:41:20;29.40;75.30
32502;DHT22;18952;52.516;13.460;2023-06-22T11:43:47;29.50;74.90
32502;DHT22;18952;52.516;13.460;2023-06-22T11:46:16;29.50;74.40
32502;DHT22;18952;52.516;13.460;2023-06-22T11:48:43;29.60;74.10
32502;DHT22;18952;52.516;13.460;2023-06-22T11:51:10;29.70;73.60
32502;DHT22;18952;52.516;13.460;2023-06-22T11:53:37;29.80;73.20
32502;DHT22;18952;52.516;13.460;2023-06-22T11:56:04;29.90;72.60
32502;DHT22;18952;52.516;13.460;2023-06-22T11:58:31;30.00;72.10
32502;DHT22;18952;52.516;13.460;2023-06-22T12:00:58;30.20;71.90
32502;DHT22;18952;52.516;13.460;2023-06-22T12:03:24;30.40;71.30
32502;DHT22;18952;52.516;13.460;2023-06-22T12:05:51;30.60;71.80
32502;DHT22;18952;52.516;13.460;2023-06-22T12:08:18;31.00;70.90
32502;DHT22;18952;52.516;13.460;2023-06-22T12:10:45;31.20;70.00
32502;DHT22;18952;52.516;13.460;2023-06-22T12:13:12;31.40;69.00
32502;DHT22;18952;52.516;13.460;2023-06-22T12:15:39;31.70;68.90
32502;DHT22;18952;52.516;13.460;2023-06-22T12:18:06;31.90;68.60
32502;DHT22;18952;52.516;13.460;2023-06-22T12:20:33;31.90;68.30
32502;DHT22;18952;52.516;13.460;2023-06-22T12:22:59;31.80;67.90
32502;DHT22;18952;52.516;13.460;2023-06-22T12:25:26;31.60;67.70
32502;DHT22;18952;52.516;13.460;2023-06-22T12:27:53;31.40;67.50
32502;DHT22;18952;52.516;13.460;2023-06-22T12:30:20;31.40;67.90
32502;DHT22;18952;52.516;13.460;2023-06-22T12:32:47;31.50;67.20
32502;DHT22;18952;52.516;13.460;2023-06-22T12:35:14;31.70;66.70
32502;DHT22;18952;52.516;13.460;2023-06-22T12:37:41;32.10;66.80
32502;DHT22;18952;52.516;13.460;2023-06-22T12:40:09;32.50;65.90
32502;DHT22;18952;52.516;13.460;2023-06-22T12:42:36;32.90;65.00
32502;DHT22;18952;52.516;13.460;2023-06-22T12:45:03;32.90;64.70
32502;DHT22;18952;52.516;13.460;2023-06-22T12:47:31;33.10;64.00
32502;DHT22;18952;52.516;13.460;2023-06-22T12:49:58;33.30;63.80
32502;DHT22;18952;52.516;13.460;2023-06-22T12:52:25;33.60;63.70
32502;DHT22;18952;52.516;13.460;2023-06-22T12:54:51;34.00;62.80
32502;DHT22;18952;52.516;13.460;2023-06-22T12:57:22;34.10;62.30
32502;DHT22;18952;52.516;13.460;2023-06-22T12:59:51;34.30;61.90
32502;DHT22;18952;52.516;13.460;2023-06-22T13:02:18;34.40;61.60
32502;DHT22;18952;52.516;13.460;2023-06-22T13:04:44;34.50;61.20
32502;DHT22;18952;52.516;13.460;2023-06-22T13:07:11;34.50;60.60
32502;DHT22;18952;52.516;13.460;2023-06-22T13:09:41;34.30;60.30
32502;DHT22;18952;52.516;13.460;2023-06-22T13:12:08;34.00;60.40
32502;DHT22;18952;52.516;13.460;2023-06-22T13:14:35;34.00;60.50
32502;DHT22;18952;52.516;13.460;2023-06-22T13:17:02;34.20;60.20
32502;DHT22;18952;52.516;13.460;2023-06-22T13:19:29;34.30;60.20
32502;DHT22;18952;52.516;13.460;2023-06-22T13:21:55;34.60;59.80
32502;DHT22;18952;52.516;13.460;2023-06-22T13:24:23;34.90;59.50
32502;DHT22;18952;52.516;13.460;2023-06-22T13:26:50;35.20;58.90
32502;DHT22;18952;52.516;13.460;2023-06-22T13:29:16;35.40;58.40
32502;DHT22;18952;52.516;13.460;2023-06-22T13:31:43;35.60;58.20
32502;DHT22;18952;52.516;13.460;2023-06-22T13:34:10;35.80;57.90
32502;DHT22;18952;52.516;13.460;2023-06-22T13:36:37;36.00;57.10
32502;DHT22;18952;52.516;13.460;2023-06-22T13:39:04;36.00;57.20
32502;DHT22;18952;52.516;13.460;2023-06-22T13:41:30;36.10;57.00
32502;DHT22;18952;52.516;13.460;2023-06-22T13:43:57;36.30;56.60
32502;DHT22;18952;52.516;13.460;2023-06-22T13:46:24;36.30;56.50
32502;DHT22;18952;52.516;13.460;2023-06-22T13:48:51;36.40;56.40
32502;DHT22;18952;52.516;13.460;2023-06-22T13:51:22;36.40;56.00
32502;DHT22;18952;52.516;13.460;2023-06-22T13:53:49;36.50;55.80
32502;DHT22;18952;52.516;13.460;2023-06-22T13:56:16;36.60;55.80
32502;DHT22;18952;52.516;13.460;2023-06-22T13:58:42;36.60;55.40
32502;DHT22;18952;52.516;13.460;2023-06-22T14:01:09;36.70;55.10
32502;DHT22;18952;52.516;13.460;2023-06-22T14:03:43;36.80;55.00
32502;DHT22;18952;52.516;13.460;2023-06-22T14:06:10;36.80;54.60
32502;DHT22;18952;52.516;13.460;2023-06-22T14:08:37;36.90;54.60
32502;DHT22;18952;52.516;13.460;2023-06-22T14:11:08;37.00;54.40
32502;DHT22;18952;52.516;13.460;2023-06-22T14:13:35;37.20;53.90
32502;DHT22;18952;52.516;13.460;2023-06-22T14:16:02;37.20;53.80
32502;DHT22;18952;52.516;13.460;2023-06-22T14:18:29;37.20;53.80
32502;DHT22;18952;52.516;13.460;2023-06-22T14:20:56;37.30;53.80
32502;DHT22;18952;52.516;13.460;2023-06-22T14:23:23;37.30;53.40
32502;DHT22;18952;52.516;13.460;2023-06-22T14:25:49;37.40;53.20
32502;DHT22;18952;52.516;13.460;2023-06-22T14:28:16;37.40;53.10
32502;DHT22;18952;52.516;13.460;2023-06-22T14:30:43;37.30;52.90
32502;DHT22;18952;52.516;13.460;2023-06-22T14:33:11;37.30;52.80
32502;DHT22;18952;52.516;13.460;2023-06-22T14:35:38;37.40;52.80
32502;DHT22;18952;52.516;13.460;2023-06-22T14:38:06;37.30;52.60
32502;DHT22;18952;52.516;13.460;2023-06-22T14:40:33;37.30;52.80
32502;DHT22;18952;52.516;13.460;2023-06-22T14:43:19;37.40;52.70
32502;DHT22;18952;52.516;13.460;2023-06-22T14:45:46;37.40;52.60
32502;DHT22;18952;52.516;13.460;2023-06-22T14:48:13;37.30;52.70
32502;DHT22;18952;52.516;13.460;2023-06-22T14:50:39;37.30;52.40
32502;DHT22;18952;52.516;13.460;2023-06-22T14:53:06;37.30;52.40
32502;DHT22;18952;52.516;13.460;2023-06-22T14:55:33;37.30;52.40
32502;DHT22;18952;52.516;13.460;2023-06-22T14:58:00;37.40;52.10
32502;DHT22;18952;52.516;13.460;2023-06-22T15:00:27;37.40;52.40
32502;DHT22;18952;52.516;13.460;2023-06-22T15:02:54;37.50;52.00
32502;DHT22;18952;52.516;13.460;2023-06-22T15:05:21;37.50;51.80
32502;DHT22;18952;52.516;13.460;2023-06-22T15:07:48;37.50;52.00
32502;DHT22;18952;52.516;13.460;2023-06-22T15:10:14;37.50;51.90
32502;DHT22;18952;52.516;13.460;2023-06-22T15:12:41;37.50;51.50
32502;DHT22;18952;52.516;13.460;2023-06-22T15:15:09;37.50;51.80
32502;DHT22;18952;52.516;13.460;2023-06-22T15:17:35;37.20;51.70